KBIX/BIX METAR and TAF weather

Enter ICAO airport designator
Station Type Date Time Source
KBIX METAR 2021/06/22 21:56 UTC NOAA

KBIX 222156Z AUTO 21012KT 10SM VCTS FEW043 FEW055 28/24 A2991 RMK AO2 SLP131 T02830243


Station Type Date Time Source
KBIX Decoded METAR 2021/06/22 21:56 UTC NOAA

Keesler Air Force Base / Biloxi, MS, United States (KBIX) 30-25N 088-55W
Jun 22, 2021 - 05:56 PM EDT / 2021.06.22 2156 UTC
Wind: from the SSW (210 degrees) at 14 MPH (12 KT):0
Visibility: 10 mile(s):0
Sky conditions: mostly clear
Weather: thunder in the vicinity
Temperature: 82.9 F (28.3 C)
Dew Point: 75.7 F (24.3 C)
Relative Humidity: 78%
Pressure (altimeter): 29.91 in. Hg (1012 hPa)
ob: KBIX 222156Z AUTO 21012KT 10SM VCTS FEW043 FEW055 28/24 A2991 RMK AO2 SLP131 T02830243
cycle: 22

Station Type Date Time Source
KBIX TAF 2021/06/22 18:15 UTC NOAA

TAF KBIX 221800Z 2218/2324 22009KT 9999 SCT018 BKN025 BKN200 QNH2994INS
TEMPO 2218/2223 VRB15G20KT 8000 -TSRA SCT015 BKN020CB OVC040
BECMG 2316/2317 22013KT 9999 VCSH SCT030 BKN050 BKN200 QNH3003INS
TEMPO 2318/2322 VRB15G20KT 9000 -TSRA SCT010 BKN020CB OVC030
BECMG 2322/2323 20009KT 9999 NSW SCT030 QNH3000INS TX32/2320Z TN24/2308Z

Example: see airport list